createdAt,value
2022-08-23T00:00:40.868Z,16.81
2022-08-23T00:03:08.216Z,16.77
2022-08-23T00:05:36.635Z,16.99
2022-08-23T00:08:03.921Z,16.82
2022-08-23T00:10:31.224Z,16.69
2022-08-23T00:12:58.493Z,16.89
2022-08-23T00:15:25.777Z,16.67
2022-08-23T00:17:53.072Z,16.52
2022-08-23T00:20:20.382Z,16.65
2022-08-23T00:22:47.701Z,16.44
2022-08-23T00:25:14.993Z,16.52
2022-08-23T00:27:42.394Z,16.40
2022-08-23T00:30:09.678Z,16.27
2022-08-23T00:32:36.960Z,16.31
2022-08-23T00:35:04.271Z,16.39
2022-08-23T00:37:31.563Z,16.60
2022-08-23T00:39:58.952Z,16.53
2022-08-23T00:42:26.268Z,16.69
2022-08-23T00:44:53.572Z,16.73
2022-08-23T00:47:20.905Z,16.75
2022-08-23T00:49:48.201Z,16.72
2022-08-23T00:52:15.471Z,16.75
2022-08-23T00:54:42.765Z,16.78
2022-08-23T00:57:10.028Z,16.46
2022-08-23T00:59:37.314Z,16.26
2022-08-23T01:02:05.846Z,16.00
2022-08-23T01:04:33.219Z,15.90
2022-08-23T01:07:00.520Z,15.94
2022-08-23T01:09:27.846Z,15.82
2022-08-23T01:11:55.123Z,15.93
2022-08-23T01:14:22.407Z,15.90
2022-08-23T01:16:49.706Z,15.66
2022-08-23T01:19:16.998Z,15.69
2022-08-23T01:21:46.236Z,15.69
2022-08-23T01:24:19.099Z,15.56
2022-08-23T01:27:00.806Z,15.72
2022-08-23T01:29:28.099Z,15.81
2022-08-23T01:31:55.378Z,15.82
2022-08-23T01:34:22.641Z,15.92
2022-08-23T01:36:49.946Z,15.90
2022-08-23T01:39:17.213Z,15.96
2022-08-23T01:41:44.477Z,16.01
2022-08-23T01:44:11.783Z,15.98
2022-08-23T01:46:39.057Z,15.96
2022-08-23T01:49:08.343Z,15.94
2022-08-23T01:51:35.865Z,15.99
2022-08-23T01:54:03.138Z,15.90
2022-08-23T01:56:38.639Z,15.85
2022-08-23T01:59:06.462Z,15.72
2022-08-23T02:01:33.744Z,15.84
2022-08-23T02:04:05.356Z,15.69
2022-08-23T02:06:32.764Z,15.64
2022-08-23T02:09:00.030Z,15.62
2022-08-23T02:11:27.334Z,15.48
2022-08-23T02:13:54.623Z,15.47
2022-08-23T02:16:21.891Z,15.37
2022-08-23T02:18:49.166Z,15.30
2022-08-23T02:21:16.462Z,15.21
2022-08-23T02:23:43.733Z,15.20
2022-08-23T02:26:11.030Z,15.23
2022-08-23T02:28:38.338Z,15.24
2022-08-23T02:31:05.607Z,15.30
2022-08-23T02:33:33.087Z,15.20
2022-08-23T02:36:00.648Z,15.18
2022-08-23T02:38:27.914Z,15.20
2022-08-23T02:41:00.942Z,15.18
2022-08-23T02:43:28.465Z,15.20
2022-08-23T02:45:55.751Z,15.14
2022-08-23T02:48:23.142Z,15.13
2022-08-23T02:50:50.421Z,15.18
2022-08-23T02:53:17.693Z,15.09
2022-08-23T02:55:45.075Z,15.31
2022-08-23T02:58:12.350Z,15.23
2022-08-23T03:00:39.628Z,15.11
2022-08-23T03:03:06.940Z,15.04
2022-08-23T03:05:34.216Z,14.94
2022-08-23T03:08:01.693Z,14.82
2022-08-23T03:10:29.105Z,14.81
2022-08-23T03:12:56.388Z,15.01
2022-08-23T03:15:23.679Z,15.07
2022-08-23T03:17:50.939Z,15.15
2022-08-23T03:20:18.209Z,15.17
2022-08-23T03:22:49.649Z,15.51
2022-08-23T03:25:22.397Z,15.57
2022-08-23T03:27:49.711Z,15.45
2022-08-23T03:30:20.001Z,15.54
2022-08-23T03:32:48.975Z,15.50
2022-08-23T03:35:16.655Z,15.76
2022-08-23T03:37:43.947Z,15.53
2022-08-23T03:40:11.247Z,15.33
2022-08-23T03:42:38.588Z,15.33
2022-08-23T03:45:05.847Z,15.25
2022-08-23T03:47:33.125Z,15.12
2022-08-23T03:50:00.412Z,14.99
2022-08-23T03:52:27.702Z,15.18
2022-08-23T03:54:55.097Z,15.12
2022-08-23T03:57:24.340Z,14.98
2022-08-23T03:59:51.599Z,14.98
2022-08-23T04:02:18.901Z,14.93
2022-08-23T04:04:46.186Z,14.75
2022-08-23T04:07:13.463Z,14.81
2022-08-23T04:09:40.810Z,14.90
2022-08-23T04:12:17.520Z,14.76
2022-08-23T04:14:45.253Z,14.84
2022-08-23T04:17:12.558Z,14.59
2022-08-23T04:19:39.823Z,14.68
2022-08-23T04:22:07.103Z,14.68
2022-08-23T04:24:34.411Z,14.72
2022-08-23T04:27:01.745Z,14.59
2022-08-23T04:29:34.587Z,14.51
2022-08-23T04:32:02.079Z,14.52
2022-08-23T04:34:32.684Z,14.62
2022-08-23T04:36:59.980Z,14.40
2022-08-23T04:39:29.218Z,14.24
2022-08-23T04:41:56.487Z,14.16
2022-08-23T04:44:25.604Z,13.95
2022-08-23T04:46:52.900Z,14.12
2022-08-23T04:49:20.180Z,13.97
2022-08-23T04:51:52.943Z,14.04
2022-08-23T04:54:22.586Z,14.30
2022-08-23T04:56:50.880Z,14.23
2022-08-23T04:59:19.170Z,14.19
2022-08-23T05:01:46.470Z,14.13
2022-08-23T05:04:13.802Z,14.09
2022-08-23T05:06:41.143Z,14.11
2022-08-23T05:09:08.533Z,14.22
2022-08-23T05:11:37.757Z,14.27
2022-08-23T05:14:05.036Z,14.31
2022-08-23T05:16:32.423Z,14.38
2022-08-23T05:19:01.738Z,14.48
2022-08-23T05:21:29.011Z,14.49
2022-08-23T05:23:56.288Z,14.64
2022-08-23T05:26:23.584Z,14.66
2022-08-23T05:28:50.880Z,14.70
2022-08-23T05:31:18.152Z,14.78
2022-08-23T05:33:47.455Z,14.96
2022-08-23T05:36:14.728Z,15.14
2022-08-23T05:38:42.137Z,15.32
2022-08-23T05:41:09.422Z,15.49
2022-08-23T05:43:36.701Z,15.66
2022-08-23T05:46:03.998Z,15.87
2022-08-23T05:48:31.281Z,16.03
2022-08-23T05:50:58.551Z,16.14
2022-08-23T05:53:25.846Z,16.40
2022-08-23T05:55:53.141Z,16.59
2022-08-23T05:58:20.415Z,16.66
2022-08-23T06:00:47.770Z,16.71
2022-08-23T06:03:15.100Z,16.82
2022-08-23T06:05:42.460Z,17.09
2022-08-23T06:08:09.867Z,17.27
2022-08-23T06:10:41.585Z,17.25
2022-08-23T06:13:09.560Z,17.24
2022-08-23T06:15:38.917Z,17.46
2022-08-23T06:18:06.276Z,17.60
2022-08-23T06:20:33.617Z,17.61
2022-08-23T06:23:00.976Z,17.72
2022-08-23T06:25:28.281Z,17.60
2022-08-23T06:27:57.723Z,17.95
2022-08-23T06:30:25.039Z,17.72
2022-08-23T06:32:52.424Z,17.91
2022-08-23T06:35:39.490Z,17.98
2022-08-23T06:38:07.025Z,17.96
2022-08-23T06:40:34.315Z,17.93
2022-08-23T06:43:01.595Z,18.08
2022-08-23T06:45:35.038Z,18.16
2022-08-23T06:48:02.909Z,18.04
2022-08-23T06:50:32.433Z,18.19
2022-08-23T06:53:00.162Z,18.19
2022-08-23T06:55:27.439Z,18.11
2022-08-23T06:57:54.751Z,18.18
2022-08-23T07:00:22.724Z,18.30
2022-08-23T07:02:50.339Z,18.44
2022-08-23T07:05:17.741Z,18.35
2022-08-23T07:07:45.040Z,18.36
2022-08-23T07:10:12.360Z,18.43
2022-08-23T07:12:41.597Z,18.28
2022-08-23T07:15:08.898Z,18.46
2022-08-23T07:17:36.189Z,18.58
2022-08-23T07:20:03.462Z,18.54
2022-08-23T07:22:30.831Z,18.62
2022-08-23T07:24:58.174Z,18.78
2022-08-23T07:27:25.467Z,18.92
2022-08-23T07:29:52.773Z,19.01
2022-08-23T07:32:20.089Z,18.57
2022-08-23T07:34:47.414Z,18.45
2022-08-23T07:37:15.438Z,18.61
2022-08-23T07:39:43.231Z,18.69
2022-08-23T07:42:24.105Z,18.69
2022-08-23T07:44:51.705Z,18.65
2022-08-23T07:47:20.003Z,18.67
2022-08-23T07:49:47.296Z,18.93
2022-08-23T07:52:14.606Z,19.02
2022-08-23T07:54:42.538Z,19.09
2022-08-23T07:57:16.173Z,19.23
2022-08-23T07:59:43.438Z,19.11
2022-08-23T08:02:10.803Z,19.61
2022-08-23T08:04:38.147Z,19.95
2022-08-23T08:07:18.885Z,19.65
2022-08-23T08:09:47.904Z,19.48
2022-08-23T08:12:15.194Z,19.77
2022-08-23T08:14:42.822Z,19.92
2022-08-23T08:17:10.108Z,19.75
2022-08-23T08:19:37.500Z,19.78
2022-08-23T08:22:04.778Z,19.55
2022-08-23T08:24:32.068Z,19.51
2022-08-23T08:26:59.370Z,19.53
2022-08-23T08:29:26.666Z,19.52
2022-08-23T08:31:54.557Z,19.68
2022-08-23T08:34:21.969Z,19.88
2022-08-23T08:36:49.325Z,20.23
2022-08-23T08:39:16.836Z,20.41
2022-08-23T08:41:44.096Z,20.49
2022-08-23T08:44:15.779Z,20.75
2022-08-23T08:46:43.616Z,20.76
2022-08-23T08:49:10.971Z,21.06
2022-08-23T08:51:38.235Z,20.84
2022-08-23T08:54:05.524Z,20.77
2022-08-23T08:56:33.038Z,20.40
2022-08-23T08:59:00.383Z,20.52
2022-08-23T09:01:27.713Z,20.20
2022-08-23T09:03:55.029Z,20.37
2022-08-23T09:06:22.354Z,20.49
2022-08-23T09:08:49.752Z,20.71
2022-08-23T09:11:17.019Z,20.80
2022-08-23T09:13:46.326Z,20.82
2022-08-23T09:16:13.850Z,21.01
2022-08-23T09:18:41.178Z,21.16
2022-08-23T09:21:08.464Z,21.15
2022-08-23T09:23:38.322Z,21.20
2022-08-23T09:26:05.685Z,20.86
2022-08-23T09:28:32.974Z,21.27
2022-08-23T09:31:00.329Z,21.59
2022-08-23T09:33:27.631Z,21.19
2022-08-23T09:35:54.922Z,21.49
2022-08-23T09:38:22.192Z,21.62
2022-08-23T09:40:49.487Z,21.60
2022-08-23T09:43:16.758Z,21.90
2022-08-23T09:45:44.150Z,21.68
2022-08-23T09:48:13.400Z,21.82
2022-08-23T09:50:40.715Z,21.51
2022-08-23T09:53:08.032Z,21.94
2022-08-23T09:55:35.295Z,21.74
2022-08-23T09:58:02.577Z,22.01
2022-08-23T10:00:29.900Z,21.59
2022-08-23T10:02:57.183Z,21.40
2022-08-23T10:05:24.466Z,22.07
2022-08-23T10:07:51.770Z,21.99
2022-08-23T10:10:19.049Z,21.73
2022-08-23T10:12:46.325Z,21.87
2022-08-23T10:15:13.637Z,22.42
2022-08-23T10:17:40.938Z,22.50
2022-08-23T10:20:08.225Z,22.04
2022-08-23T10:22:35.524Z,22.48
2022-08-23T10:25:04.197Z,21.92
2022-08-23T10:27:33.063Z,22.24
2022-08-23T10:30:00.321Z,22.24
2022-08-23T10:32:27.598Z,22.06
2022-08-23T10:34:54.898Z,22.23
2022-08-23T10:37:22.171Z,22.22
2022-08-23T10:39:49.513Z,22.50
2022-08-23T10:42:16.827Z,22.49
2022-08-23T10:44:44.135Z,22.79
2022-08-23T10:47:11.419Z,22.44
2022-08-23T10:49:38.706Z,22.72
2022-08-23T10:52:06.011Z,22.43
2022-08-23T10:54:33.289Z,22.40
2022-08-23T10:57:00.583Z,22.27
2022-08-23T10:59:27.887Z,22.67
2022-08-23T11:01:55.250Z,22.53
2022-08-23T11:04:22.566Z,22.64
2022-08-23T11:06:49.867Z,22.50
2022-08-23T11:09:17.168Z,22.24
2022-08-23T11:11:44.437Z,22.44
2022-08-23T11:14:11.718Z,22.49
2022-08-23T11:16:39.015Z,22.59
2022-08-23T11:19:06.276Z,22.85
2022-08-23T11:21:33.606Z,22.71
2022-08-23T11:24:00.911Z,22.41
2022-08-23T11:26:28.208Z,22.66
2022-08-23T11:28:55.476Z,23.29
2022-08-23T11:31:22.778Z,23.30
2022-08-23T11:33:50.168Z,23.00
2022-08-23T11:36:17.427Z,22.82
2022-08-23T11:38:44.692Z,23.13
2022-08-23T11:41:11.978Z,23.89
2022-08-23T11:43:39.353Z,23.52
2022-08-23T11:46:07.072Z,23.67
2022-08-23T11:48:34.365Z,23.97
2022-08-23T11:51:01.693Z,24.03
2022-08-23T11:53:28.983Z,23.96
2022-08-23T11:55:56.276Z,23.93
2022-08-23T11:58:25.501Z,23.31
2022-08-23T12:00:52.804Z,22.95
2022-08-23T12:03:20.206Z,23.46
2022-08-23T12:05:47.584Z,23.77
2022-08-23T12:08:14.867Z,23.36
2022-08-23T12:10:42.158Z,23.96
2022-08-23T12:13:09.455Z,23.48
2022-08-23T12:15:41.897Z,23.58
2022-08-23T12:18:09.207Z,23.46
2022-08-23T12:20:36.611Z,23.16
2022-08-23T12:23:06.055Z,23.47
2022-08-23T12:25:33.753Z,23.90
2022-08-23T12:28:01.261Z,23.51
2022-08-23T12:30:28.705Z,23.53
2022-08-23T12:32:55.987Z,23.74
2022-08-23T12:35:23.273Z,23.89
2022-08-23T12:37:51.500Z,24.28
2022-08-23T12:40:18.931Z,24.08
2022-08-23T12:42:46.268Z,24.20
2022-08-23T12:45:13.543Z,24.22
2022-08-23T12:47:42.992Z,23.99
2022-08-23T12:50:10.458Z,24.10
2022-08-23T12:52:37.757Z,23.68
2022-08-23T12:55:05.050Z,24.18
2022-08-23T12:57:32.357Z,24.38
2022-08-23T13:00:17.235Z,24.00
2022-08-23T13:02:45.644Z,23.96
2022-08-23T13:05:13.685Z,24.38
2022-08-23T13:07:41.075Z,24.19
2022-08-23T13:10:08.370Z,24.31
2022-08-23T13:12:35.660Z,24.45
2022-08-23T13:15:02.977Z,24.52
2022-08-23T13:17:30.245Z,24.37
2022-08-23T13:19:57.519Z,24.28
2022-08-23T13:22:24.817Z,23.91
2022-08-23T13:25:11.439Z,23.89
2022-08-23T13:27:39.343Z,23.91
2022-08-23T13:30:06.645Z,24.30
2022-08-23T13:32:33.940Z,24.41
2022-08-23T13:35:01.222Z,24.28
2022-08-23T13:37:28.536Z,24.53
2022-08-23T13:39:56.118Z,24.61
2022-08-23T13:42:23.464Z,24.45
2022-08-23T13:44:50.772Z,24.55
2022-08-23T13:47:18.065Z,24.43
2022-08-23T13:49:45.328Z,24.57
2022-08-23T13:52:41.585Z,24.82
2022-08-23T13:54:59.839Z,24.76
2022-08-23T13:57:30.092Z,24.20
2022-08-23T13:59:59.570Z,24.02
2022-08-23T14:02:26.885Z,24.19
2022-08-23T14:04:54.267Z,24.38
2022-08-23T14:07:21.586Z,24.68
2022-08-23T14:09:53.120Z,24.71
2022-08-23T14:12:22.165Z,24.40
2022-08-23T14:14:49.473Z,24.14
2022-08-23T14:17:17.328Z,23.97
2022-08-23T14:22:34.678Z,24.20
2022-08-23T14:25:02.041Z,24.15
2022-08-23T14:27:29.321Z,24.32
2022-08-23T14:29:56.630Z,24.56
2022-08-23T14:32:23.903Z,24.35
2022-08-23T14:34:52.844Z,24.25
2022-08-23T14:38:02.046Z,24.13
2022-08-23T14:40:07.464Z,24.44
2022-08-23T14:42:34.816Z,24.60
2022-08-23T14:45:02.116Z,24.52
2022-08-23T14:47:29.405Z,24.74
2022-08-23T14:49:56.787Z,24.87
2022-08-23T14:52:24.056Z,24.67
2022-08-23T14:54:51.331Z,24.51
2022-08-23T14:57:18.662Z,25.30
2022-08-23T14:59:45.954Z,24.57
2022-08-23T15:02:13.240Z,24.81
2022-08-23T15:04:40.632Z,24.62
2022-08-23T15:07:17.671Z,24.55
2022-08-23T15:09:46.198Z,24.66
2022-08-23T15:12:57.208Z,24.94
2022-08-23T15:15:00.912Z,24.56
2022-08-23T15:17:31.555Z,24.53
2022-08-23T15:19:59.176Z,24.31
2022-08-23T15:22:26.479Z,24.59
2022-08-23T15:24:53.747Z,24.33
2022-08-23T15:27:21.041Z,24.34
2022-08-23T15:29:48.337Z,24.32
2022-08-23T15:32:15.616Z,24.89
2022-08-23T15:34:49.766Z,25.08
2022-08-23T15:37:17.064Z,24.76
2022-08-23T15:39:44.389Z,24.50
2022-08-23T15:42:16.610Z,24.09
2022-08-23T15:44:47.678Z,24.07
2022-08-23T15:47:14.942Z,24.37
2022-08-23T15:49:42.212Z,24.20
2022-08-23T15:52:09.511Z,24.12
2022-08-23T15:54:36.791Z,24.22
2022-08-23T15:57:04.068Z,24.19
2022-08-23T15:59:31.351Z,24.97
2022-08-23T16:01:58.689Z,25.12
2022-08-23T16:04:25.991Z,24.79
2022-08-23T16:06:53.289Z,24.80
2022-08-23T16:09:20.566Z,24.62
2022-08-23T16:11:47.873Z,24.38
2022-08-23T16:14:15.156Z,24.38
2022-08-23T16:16:42.472Z,24.27
2022-08-23T16:19:09.809Z,24.29
2022-08-23T16:21:37.079Z,24.04
2022-08-23T16:24:04.376Z,23.76
2022-08-23T16:26:35.139Z,23.64
2022-08-23T16:29:02.795Z,23.62
2022-08-23T16:31:38.757Z,23.46
2022-08-23T16:34:06.426Z,23.46
2022-08-23T16:36:33.718Z,23.28
2022-08-23T16:39:00.990Z,23.62
2022-08-23T16:41:28.275Z,23.40
2022-08-23T16:43:55.564Z,23.88
2022-08-23T16:46:22.860Z,23.91
2022-08-23T16:48:50.172Z,23.61
2022-08-23T16:51:17.457Z,23.52
2022-08-23T16:53:44.859Z,23.98
2022-08-23T16:56:30.892Z,24.11
2022-08-23T16:58:58.183Z,23.76
2022-08-23T17:01:25.755Z,24.07
2022-08-23T17:03:53.451Z,23.90
2022-08-23T17:06:20.740Z,23.92
2022-08-23T17:08:48.036Z,23.97
2022-08-23T17:11:15.309Z,23.84
2022-08-23T17:13:42.596Z,23.54
2022-08-23T17:16:09.901Z,23.51
2022-08-23T17:18:37.186Z,23.34
2022-08-23T17:21:04.471Z,23.59
2022-08-23T17:23:31.792Z,23.35
2022-08-23T17:25:59.862Z,23.51
2022-08-23T17:28:27.134Z,23.42
2022-08-23T17:30:58.883Z,23.24
2022-08-23T17:33:26.140Z,23.46
2022-08-23T17:35:53.418Z,23.50
2022-08-23T17:38:20.704Z,23.33
2022-08-23T17:40:47.973Z,23.21
2022-08-23T17:43:15.246Z,23.26
2022-08-23T17:45:42.634Z,22.95
2022-08-23T17:48:10.020Z,22.71
2022-08-23T17:50:37.292Z,22.77
2022-08-23T17:53:04.567Z,22.55
2022-08-23T17:55:31.863Z,22.46
2022-08-23T17:58:03.790Z,22.23
2022-08-23T18:00:31.514Z,22.67
2022-08-23T18:02:58.845Z,22.49
2022-08-23T18:05:26.125Z,22.45
2022-08-23T18:07:53.418Z,22.12
2022-08-23T18:10:20.713Z,22.15
2022-08-23T18:12:48.018Z,22.42
2022-08-23T18:15:15.299Z,22.14
2022-08-23T18:17:43.591Z,22.18
2022-08-23T18:20:10.873Z,22.04
2022-08-23T18:22:38.177Z,22.14
2022-08-23T18:25:07.305Z,22.16
2022-08-23T18:27:34.581Z,22.23
2022-08-23T18:30:01.863Z,22.18
2022-08-23T18:32:29.177Z,22.16
2022-08-23T18:34:56.457Z,21.86
2022-08-23T18:37:23.728Z,21.88
2022-08-23T18:39:51.039Z,21.81
2022-08-23T18:42:18.348Z,21.66
2022-08-23T18:44:45.965Z,21.70
2022-08-23T18:47:13.260Z,21.69
2022-08-23T18:49:40.545Z,21.68
2022-08-23T18:52:07.837Z,21.60
2022-08-23T18:54:35.137Z,21.41
2022-08-23T18:57:02.407Z,21.55
2022-08-23T18:59:29.683Z,21.32
2022-08-23T19:01:57.098Z,21.24
2022-08-23T19:04:24.469Z,21.30
2022-08-23T19:06:53.472Z,20.98
2022-08-23T19:09:21.674Z,20.74
2022-08-23T19:11:48.977Z,20.67
2022-08-23T19:14:16.280Z,20.69
2022-08-23T19:16:47.994Z,20.69
2022-08-23T19:19:15.773Z,20.48
2022-08-23T19:21:43.056Z,20.34
2022-08-23T19:24:10.323Z,20.42
2022-08-23T19:26:37.622Z,20.55
2022-08-23T19:29:04.887Z,20.53
2022-08-23T19:31:37.219Z,20.38
2022-08-23T19:34:07.005Z,20.53
2022-08-23T19:36:46.444Z,20.64
2022-08-23T19:39:15.493Z,20.28
2022-08-23T19:41:42.785Z,20.35
2022-08-23T19:44:10.087Z,20.39
2022-08-23T19:46:37.355Z,20.59
2022-08-23T19:49:06.952Z,20.52
2022-08-23T19:51:34.532Z,20.60
2022-08-23T19:54:01.839Z,20.59
2022-08-23T19:56:29.590Z,20.48
2022-08-23T19:58:57.712Z,20.63
2022-08-23T20:01:25.110Z,20.23
2022-08-23T20:03:52.376Z,20.12
2022-08-23T20:06:19.652Z,20.09
2022-08-23T20:08:47.525Z,20.23
2022-08-23T20:11:14.806Z,20.05
2022-08-23T20:13:42.093Z,20.42
2022-08-23T20:16:09.415Z,20.12
2022-08-23T20:18:36.705Z,20.00
2022-08-23T20:21:03.975Z,19.81
2022-08-23T20:23:31.359Z,19.44
2022-08-23T20:25:58.648Z,19.62
2022-08-23T20:28:26.538Z,19.64
2022-08-23T20:30:55.879Z,19.54
2022-08-23T20:33:23.160Z,19.61
2022-08-23T20:35:50.424Z,19.69
2022-08-23T20:38:31.378Z,19.69
2022-08-23T20:41:01.031Z,19.62
2022-08-23T20:43:30.618Z,19.70
2022-08-23T20:45:57.937Z,19.57
2022-08-23T20:48:25.203Z,19.56
2022-08-23T20:50:52.500Z,19.75
2022-08-23T20:53:19.779Z,19.57
2022-08-23T20:55:47.048Z,19.66
2022-08-23T20:58:14.351Z,19.51
2022-08-23T21:00:41.647Z,19.55
2022-08-23T21:03:08.949Z,19.30
2022-08-23T21:05:36.323Z,19.10
2022-08-23T21:08:03.782Z,19.34
2022-08-23T21:10:31.373Z,19.37
2022-08-23T21:12:58.686Z,19.43
2022-08-23T21:15:25.999Z,19.37
2022-08-23T21:17:53.284Z,19.38
2022-08-23T21:20:20.580Z,19.22
2022-08-23T21:22:47.854Z,19.31
2022-08-23T21:25:15.121Z,19.12
2022-08-23T21:27:42.422Z,19.01
2022-08-23T21:30:09.707Z,19.20
2022-08-23T21:32:37.007Z,19.18
2022-08-23T21:35:04.315Z,18.92
2022-08-23T21:37:31.625Z,18.57
2022-08-23T21:39:58.931Z,18.34
2022-08-23T21:42:26.259Z,18.31
2022-08-23T21:44:53.545Z,18.46
2022-08-23T21:47:20.825Z,18.61
2022-08-23T21:49:48.125Z,18.65
2022-08-23T21:52:15.397Z,18.92
2022-08-23T21:54:43.667Z,18.57
2022-08-23T21:57:11.180Z,18.44
2022-08-23T21:59:38.435Z,18.43
2022-08-23T22:02:05.779Z,18.29
2022-08-23T22:04:33.191Z,18.38
2022-08-23T22:07:00.783Z,18.35
2022-08-23T22:09:31.058Z,18.47
2022-08-23T22:11:58.910Z,18.22
2022-08-23T22:14:31.296Z,18.19
2022-08-23T22:16:59.000Z,18.29
2022-08-23T22:19:26.348Z,18.03
2022-08-23T22:21:53.654Z,18.00
2022-08-23T22:24:24.829Z,17.97
2022-08-23T22:26:52.995Z,17.91
2022-08-23T22:29:20.331Z,17.88
2022-08-23T22:31:47.596Z,18.09
2022-08-23T22:34:14.875Z,18.16
2022-08-23T22:36:42.183Z,18.33
2022-08-23T22:39:09.445Z,18.09
2022-08-23T22:41:36.704Z,17.97
2022-08-23T22:44:03.993Z,18.03
2022-08-23T22:46:31.371Z,18.13
2022-08-23T22:48:59.197Z,17.90
2022-08-23T22:51:28.033Z,17.75
2022-08-23T22:53:55.299Z,17.86
2022-08-23T22:56:22.576Z,17.78
2022-08-23T22:58:52.876Z,17.85
2022-08-23T23:01:20.394Z,17.65
2022-08-23T23:03:49.114Z,17.45
2022-08-23T23:06:17.880Z,17.33
2022-08-23T23:08:45.259Z,17.37
2022-08-23T23:11:12.525Z,17.38
2022-08-23T23:13:39.825Z,17.20
2022-08-23T23:16:07.218Z,17.24
2022-08-23T23:18:34.484Z,17.41
2022-08-23T23:21:01.759Z,17.25
2022-08-23T23:23:29.047Z,17.39
2022-08-23T23:25:56.332Z,17.25
2022-08-23T23:28:23.605Z,17.35
2022-08-23T23:30:50.925Z,17.27
2022-08-23T23:33:18.301Z,17.46
2022-08-23T23:35:45.598Z,17.32
2022-08-23T23:38:12.863Z,17.29
2022-08-23T23:40:40.163Z,17.40
2022-08-23T23:43:07.461Z,17.21
2022-08-23T23:45:39.238Z,17.09
2022-08-23T23:48:08.757Z,17.20
2022-08-23T23:50:36.179Z,17.40
2022-08-23T23:53:03.567Z,17.47
2022-08-23T23:55:30.870Z,17.38
2022-08-23T23:57:58.197Z,17.63
